ENRM

Rørvik , Ryum Airport

Rørvik, Norway
METAR ENRM 180820Z 24023G33KT 9999 -SHRA FEW007 SCT011 BKN016 05/04 Q1004
Observed Flight Rules
Dec-18 @ 08:20 UTC (37 minutes ago) Marginal Visual Flight Rules
Wind Visibility Clouds Conditions
240° at 23 knots
 Gusting to 33 knots
10,000+ meters
  • Few at 700' AGL
  • Scattered at 1,100' AGL
  • Broken at 1,600' AGL
  • Light Rain
Temperatures Readings
Current 5°C / 41°F
Dewpoint 4°C / 39°F
Humidity 93%
Altimeter 29.65" Hg
Pressure 1004 hPa
Elevation 14
METAR ENRM 180820Z 24023G33KT 9999 -SHRA FEW007 SCT011 BKN016 05/04 Q1004
Observed Flight Rules
Dec-18 @ 08:20 UTC
(37 minutes ago)
MVFR
Wind Visibility
240° at 23 knots
 Gusting to 33 knots
10,000+ meters
Clouds
  • Few at 700' AGL
  • Scattered at 1,100' AGL
  • Broken at 1,600' AGL
Conditions
  • Light Rain
Temperature Dewpoint
5°C / 41°F 4°C / 39°F
Humidity Altimeter Pressure
93% 29.65" Hg 1004 hPa